sensor_id;sensor_type;location;lat;lon;timestamp;temperature;humidity
76172;DHT22;64929;51.178;4.138;2022-12-07T00:01:20;6.70;82.10
76172;DHT22;64929;51.178;4.138;2022-12-07T00:03:47;6.80;81.80
76172;DHT22;64929;51.178;4.138;2022-12-07T00:06:15;6.90;81.20
76172;DHT22;64929;51.178;4.138;2022-12-07T00:08:41;6.80;81.30
76172;DHT22;64929;51.178;4.138;2022-12-07T00:11:09;6.80;81.40
76172;DHT22;64929;51.178;4.138;2022-12-07T00:13:36;6.90;80.80
76172;DHT22;64929;51.178;4.138;2022-12-07T00:16:16;6.80;80.90
76172;DHT22;64929;51.178;4.138;2022-12-07T00:18:44;6.90;80.30
76172;DHT22;64929;51.178;4.138;2022-12-07T00:21:30;6.80;80.60
76172;DHT22;64929;51.178;4.138;2022-12-07T00:23:57;6.70;81.00
76172;DHT22;64929;51.178;4.138;2022-12-07T00:26:36;6.60;81.30
76172;DHT22;64929;51.178;4.138;2022-12-07T00:29:04;6.60;81.30
76172;DHT22;64929;51.178;4.138;2022-12-07T00:31:34;6.70;81.10
76172;DHT22;64929;51.178;4.138;2022-12-07T00:34:07;6.70;81.10
76172;DHT22;64929;51.178;4.138;2022-12-07T00:36:34;6.70;81.10
76172;DHT22;64929;51.178;4.138;2022-12-07T00:39:00;6.70;80.50
76172;DHT22;64929;51.178;4.138;2022-12-07T00:41:28;6.60;81.70
76172;DHT22;64929;51.178;4.138;2022-12-07T00:43:54;6.40;82.30
76172;DHT22;64929;51.178;4.138;2022-12-07T00:46:21;6.40;83.10
76172;DHT22;64929;51.178;4.138;2022-12-07T00:48:47;6.50;82.70
76172;DHT22;64929;51.178;4.138;2022-12-07T00:51:15;6.70;82.30
76172;DHT22;64929;51.178;4.138;2022-12-07T00:53:41;6.70;82.30
76172;DHT22;64929;51.178;4.138;2022-12-07T00:56:13;6.90;82.10
76172;DHT22;64929;51.178;4.138;2022-12-07T00:58:39;6.90;81.90
76172;DHT22;64929;51.178;4.138;2022-12-07T01:01:07;6.70;82.30
76172;DHT22;64929;51.178;4.138;2022-12-07T01:03:34;6.60;83.10
76172;DHT22;64929;51.178;4.138;2022-12-07T01:06:00;6.70;82.90
76172;DHT22;64929;51.178;4.138;2022-12-07T01:08:28;6.70;83.50
76172;DHT22;64929;51.178;4.138;2022-12-07T01:11:07;6.90;82.60
76172;DHT22;64929;51.178;4.138;2022-12-07T01:13:34;6.90;82.30
76172;DHT22;64929;51.178;4.138;2022-12-07T01:16:02;7.00;81.80
76172;DHT22;64929;51.178;4.138;2022-12-07T01:18:30;6.90;82.10
76172;DHT22;64929;51.178;4.138;2022-12-07T01:21:01;7.00;82.20
76172;DHT22;64929;51.178;4.138;2022-12-07T01:23:27;6.90;82.30
76172;DHT22;64929;51.178;4.138;2022-12-07T01:26:01;6.90;83.00
76172;DHT22;64929;51.178;4.138;2022-12-07T01:28:27;6.80;83.50
76172;DHT22;64929;51.178;4.138;2022-12-07T01:33:23;6.80;83.50
76172;DHT22;64929;51.178;4.138;2022-12-07T01:35:48;6.70;83.40
76172;DHT22;64929;51.178;4.138;2022-12-07T01:38:14;6.80;82.90
76172;DHT22;64929;51.178;4.138;2022-12-07T01:40:40;6.90;82.50
76172;DHT22;64929;51.178;4.138;2022-12-07T01:43:16;6.90;82.40
76172;DHT22;64929;51.178;4.138;2022-12-07T01:45:42;6.80;83.10
76172;DHT22;64929;51.178;4.138;2022-12-07T01:48:09;6.70;83.00
76172;DHT22;64929;51.178;4.138;2022-12-07T01:50:36;7.10;81.60
76172;DHT22;64929;51.178;4.138;2022-12-07T01:53:06;7.00;81.20
76172;DHT22;64929;51.178;4.138;2022-12-07T01:55:34;6.80;81.60
76172;DHT22;64929;51.178;4.138;2022-12-07T01:58:01;6.80;81.70
76172;DHT22;64929;51.178;4.138;2022-12-07T02:00:27;6.70;82.30
76172;DHT22;64929;51.178;4.138;2022-12-07T02:02:57;6.60;82.40
76172;DHT22;64929;51.178;4.138;2022-12-07T02:05:25;6.70;82.20
76172;DHT22;64929;51.178;4.138;2022-12-07T02:07:53;6.80;82.10
76172;DHT22;64929;51.178;4.138;2022-12-07T02:10:31;6.60;83.20
76172;DHT22;64929;51.178;4.138;2022-12-07T02:13:10;6.80;82.60
76172;DHT22;64929;51.178;4.138;2022-12-07T02:27:40;6.80;82.60
76172;DHT22;64929;51.178;4.138;2022-12-07T02:30:23;6.70;82.90
76172;DHT22;64929;51.178;4.138;2022-12-07T02:33:00;6.70;82.70
76172;DHT22;64929;51.178;4.138;2022-12-07T02:38:14;6.80;82.00
76172;DHT22;64929;51.178;4.138;2022-12-07T02:40:48;6.80;82.30
76172;DHT22;64929;51.178;4.138;2022-12-07T02:45:51;6.60;82.70
76172;DHT22;64929;51.178;4.138;2022-12-07T02:48:19;6.60;82.90
76172;DHT22;64929;51.178;4.138;2022-12-07T02:50:50;6.60;83.00
76172;DHT22;64929;51.178;4.138;2022-12-07T02:53:33;6.90;82.20
76172;DHT22;64929;51.178;4.138;2022-12-07T02:56:16;6.80;82.10
76172;DHT22;64929;51.178;4.138;2022-12-07T02:59:02;6.80;82.40
76172;DHT22;64929;51.178;4.138;2022-12-07T03:07:02;7.00;81.50
76172;DHT22;64929;51.178;4.138;2022-12-07T03:09:40;6.80;82.70
76172;DHT22;64929;51.178;4.138;2022-12-07T03:12:15;6.80;82.70
76172;DHT22;64929;51.178;4.138;2022-12-07T03:14:57;6.90;82.00
76172;DHT22;64929;51.178;4.138;2022-12-07T03:17:27;7.00;81.60
76172;DHT22;64929;51.178;4.138;2022-12-07T03:19:58;7.00;81.40
76172;DHT22;64929;51.178;4.138;2022-12-07T03:22:24;7.00;80.90
76172;DHT22;64929;51.178;4.138;2022-12-07T03:24:59;6.90;80.70
76172;DHT22;64929;51.178;4.138;2022-12-07T03:27:34;6.80;81.30
76172;DHT22;64929;51.178;4.138;2022-12-07T03:30:10;6.80;81.40
76172;DHT22;64929;51.178;4.138;2022-12-07T03:32:59;6.80;81.70
76172;DHT22;64929;51.178;4.138;2022-12-07T03:35:33;6.80;82.30
76172;DHT22;64929;51.178;4.138;2022-12-07T03:38:14;6.70;83.20
76172;DHT22;64929;51.178;4.138;2022-12-07T03:43:34;6.60;83.70
76172;DHT22;64929;51.178;4.138;2022-12-07T03:46:21;6.70;83.50
76172;DHT22;64929;51.178;4.138;2022-12-07T03:54:57;6.80;82.10
76172;DHT22;64929;51.178;4.138;2022-12-07T03:57:26;6.70;82.50
76172;DHT22;64929;51.178;4.138;2022-12-07T03:59:54;6.70;82.70
76172;DHT22;64929;51.178;4.138;2022-12-07T04:02:21;6.80;82.40
76172;DHT22;64929;51.178;4.138;2022-12-07T04:04:47;6.50;82.30
76172;DHT22;64929;51.178;4.138;2022-12-07T04:07:13;6.70;82.10
76172;DHT22;64929;51.178;4.138;2022-12-07T04:09:39;6.60;81.90
76172;DHT22;64929;51.178;4.138;2022-12-07T04:12:05;6.60;81.70
76172;DHT22;64929;51.178;4.138;2022-12-07T04:14:30;6.30;81.90
76172;DHT22;64929;51.178;4.138;2022-12-07T04:16:58;6.30;81.80
76172;DHT22;64929;51.178;4.138;2022-12-07T04:19:32;6.40;81.20
76172;DHT22;64929;51.178;4.138;2022-12-07T04:21:58;6.50;80.30
76172;DHT22;64929;51.178;4.138;2022-12-07T04:24:25;6.50;80.00
76172;DHT22;64929;51.178;4.138;2022-12-07T04:26:51;6.30;80.60
76172;DHT22;64929;51.178;4.138;2022-12-07T04:29:17;6.20;81.20
76172;DHT22;64929;51.178;4.138;2022-12-07T04:31:43;6.10;81.60
76172;DHT22;64929;51.178;4.138;2022-12-07T04:34:10;6.30;80.70
76172;DHT22;64929;51.178;4.138;2022-12-07T04:36:36;6.40;80.00
76172;DHT22;64929;51.178;4.138;2022-12-07T04:39:03;6.20;80.60
76172;DHT22;64929;51.178;4.138;2022-12-07T04:41:29;6.20;80.70
76172;DHT22;64929;51.178;4.138;2022-12-07T04:44:01;6.10;81.50
76172;DHT22;64929;51.178;4.138;2022-12-07T04:46:29;6.00;82.40
76172;DHT22;64929;51.178;4.138;2022-12-07T04:48:55;6.10;82.50
76172;DHT22;64929;51.178;4.138;2022-12-07T04:51:23;6.30;81.30
76172;DHT22;64929;51.178;4.138;2022-12-07T04:53:49;6.20;81.90
76172;DHT22;64929;51.178;4.138;2022-12-07T04:56:16;6.20;82.10
76172;DHT22;64929;51.178;4.138;2022-12-07T04:58:44;6.00;82.20
76172;DHT22;64929;51.178;4.138;2022-12-07T05:01:11;6.10;82.70
76172;DHT22;64929;51.178;4.138;2022-12-07T05:03:37;6.20;82.50
76172;DHT22;64929;51.178;4.138;2022-12-07T05:06:03;6.30;82.10
76172;DHT22;64929;51.178;4.138;2022-12-07T05:08:29;6.50;80.60
76172;DHT22;64929;51.178;4.138;2022-12-07T05:10:55;6.40;81.00
76172;DHT22;64929;51.178;4.138;2022-12-07T05:13:21;6.50;80.70
76172;DHT22;64929;51.178;4.138;2022-12-07T05:15:47;6.50;80.40
76172;DHT22;64929;51.178;4.138;2022-12-07T05:18:14;6.30;81.40
76172;DHT22;64929;51.178;4.138;2022-12-07T05:20:40;6.30;81.80
76172;DHT22;64929;51.178;4.138;2022-12-07T05:23:06;6.30;82.10
76172;DHT22;64929;51.178;4.138;2022-12-07T05:25:35;6.10;83.50
76172;DHT22;64929;51.178;4.138;2022-12-07T05:28:04;6.00;84.00
76172;DHT22;64929;51.178;4.138;2022-12-07T05:30:30;6.10;83.50
76172;DHT22;64929;51.178;4.138;2022-12-07T05:32:56;6.10;83.50
76172;DHT22;64929;51.178;4.138;2022-12-07T05:35:22;6.20;83.30
76172;DHT22;64929;51.178;4.138;2022-12-07T05:37:48;6.40;82.00
76172;DHT22;64929;51.178;4.138;2022-12-07T05:40:14;6.40;82.20
76172;DHT22;64929;51.178;4.138;2022-12-07T05:42:40;6.30;82.30
76172;DHT22;64929;51.178;4.138;2022-12-07T05:45:07;6.40;81.80
76172;DHT22;64929;51.178;4.138;2022-12-07T05:47:33;6.40;81.70
76172;DHT22;64929;51.178;4.138;2022-12-07T05:49:59;6.20;82.00
76172;DHT22;64929;51.178;4.138;2022-12-07T05:52:24;6.30;82.00
76172;DHT22;64929;51.178;4.138;2022-12-07T05:54:51;6.50;81.00
76172;DHT22;64929;51.178;4.138;2022-12-07T05:57:17;6.60;80.90
76172;DHT22;64929;51.178;4.138;2022-12-07T05:59:43;6.60;81.20
76172;DHT22;64929;51.178;4.138;2022-12-07T06:02:11;6.40;81.20
76172;DHT22;64929;51.178;4.138;2022-12-07T06:04:40;6.40;81.60
76172;DHT22;64929;51.178;4.138;2022-12-07T06:07:06;6.50;81.10
76172;DHT22;64929;51.178;4.138;2022-12-07T06:09:33;6.60;81.30
76172;DHT22;64929;51.178;4.138;2022-12-07T06:11:59;6.50;81.60
76172;DHT22;64929;51.178;4.138;2022-12-07T06:14:43;6.40;81.80
76172;DHT22;64929;51.178;4.138;2022-12-07T06:17:10;6.50;81.40
76172;DHT22;64929;51.178;4.138;2022-12-07T06:19:36;6.40;81.20
76172;DHT22;64929;51.178;4.138;2022-12-07T06:22:02;6.40;81.70
76172;DHT22;64929;51.178;4.138;2022-12-07T06:24:33;6.40;81.20
76172;DHT22;64929;51.178;4.138;2022-12-07T06:26:59;6.20;82.30
76172;DHT22;64929;51.178;4.138;2022-12-07T06:29:25;6.50;81.30
76172;DHT22;64929;51.178;4.138;2022-12-07T06:31:51;6.60;80.20
76172;DHT22;64929;51.178;4.138;2022-12-07T06:34:19;6.40;81.40
76172;DHT22;64929;51.178;4.138;2022-12-07T06:36:45;6.60;81.20
76172;DHT22;64929;51.178;4.138;2022-12-07T06:39:12;6.60;80.50
76172;DHT22;64929;51.178;4.138;2022-12-07T06:41:39;6.80;79.70
76172;DHT22;64929;51.178;4.138;2022-12-07T06:44:05;6.70;79.70
76172;DHT22;64929;51.178;4.138;2022-12-07T06:46:32;6.50;81.00
76172;DHT22;64929;51.178;4.138;2022-12-07T06:48:57;6.50;80.90
76172;DHT22;64929;51.178;4.138;2022-12-07T06:51:23;6.40;80.90
76172;DHT22;64929;51.178;4.138;2022-12-07T06:53:49;6.40;81.30
76172;DHT22;64929;51.178;4.138;2022-12-07T06:56:15;6.10;81.90
76172;DHT22;64929;51.178;4.138;2022-12-07T06:58:41;6.10;82.10
76172;DHT22;64929;51.178;4.138;2022-12-07T07:01:11;6.20;81.60
76172;DHT22;64929;51.178;4.138;2022-12-07T07:03:37;6.40;80.10
76172;DHT22;64929;51.178;4.138;2022-12-07T07:06:03;6.60;79.50
76172;DHT22;64929;51.178;4.138;2022-12-07T07:08:29;6.40;79.50
76172;DHT22;64929;51.178;4.138;2022-12-07T07:10:54;6.30;80.30
76172;DHT22;64929;51.178;4.138;2022-12-07T07:13:20;6.10;81.00
76172;DHT22;64929;51.178;4.138;2022-12-07T07:15:46;6.10;80.90
76172;DHT22;64929;51.178;4.138;2022-12-07T07:18:11;5.90;81.80
76172;DHT22;64929;51.178;4.138;2022-12-07T07:20:37;6.10;80.90
76172;DHT22;64929;51.178;4.138;2022-12-07T07:23:04;6.10;80.30
76172;DHT22;64929;51.178;4.138;2022-12-07T07:25:29;6.10;80.50
76172;DHT22;64929;51.178;4.138;2022-12-07T07:27:55;6.20;79.80
76172;DHT22;64929;51.178;4.138;2022-12-07T07:30:21;6.10;80.20
76172;DHT22;64929;51.178;4.138;2022-12-07T07:32:46;6.00;80.70
76172;DHT22;64929;51.178;4.138;2022-12-07T07:35:12;5.80;81.20
76172;DHT22;64929;51.178;4.138;2022-12-07T07:37:39;5.70;82.30
76172;DHT22;64929;51.178;4.138;2022-12-07T07:40:06;5.90;82.20
76172;DHT22;64929;51.178;4.138;2022-12-07T07:42:32;6.00;81.80
76172;DHT22;64929;51.178;4.138;2022-12-07T07:44:57;6.10;81.50
76172;DHT22;64929;51.178;4.138;2022-12-07T07:47:23;6.10;81.40
76172;DHT22;64929;51.178;4.138;2022-12-07T07:49:48;6.40;80.70
76172;DHT22;64929;51.178;4.138;2022-12-07T07:52:14;6.20;81.30
76172;DHT22;64929;51.178;4.138;2022-12-07T07:54:40;6.30;81.50
76172;DHT22;64929;51.178;4.138;2022-12-07T07:57:05;6.20;81.70
76172;DHT22;64929;51.178;4.138;2022-12-07T07:59:31;6.40;81.40
76172;DHT22;64929;51.178;4.138;2022-12-07T08:01:57;6.40;81.00
76172;DHT22;64929;51.178;4.138;2022-12-07T08:04:22;6.30;81.80
76172;DHT22;64929;51.178;4.138;2022-12-07T08:06:48;6.10;83.10
76172;DHT22;64929;51.178;4.138;2022-12-07T08:09:14;6.20;83.50
76172;DHT22;64929;51.178;4.138;2022-12-07T08:11:39;6.30;83.70
76172;DHT22;64929;51.178;4.138;2022-12-07T08:14:05;6.30;83.20
76172;DHT22;64929;51.178;4.138;2022-12-07T08:16:30;6.40;83.00
76172;DHT22;64929;51.178;4.138;2022-12-07T08:18:56;6.50;82.80
76172;DHT22;64929;51.178;4.138;2022-12-07T08:21:22;6.70;82.30
76172;DHT22;64929;51.178;4.138;2022-12-07T08:23:47;7.00;80.60
76172;DHT22;64929;51.178;4.138;2022-12-07T08:26:14;7.10;79.70
76172;DHT22;64929;51.178;4.138;2022-12-07T08:28:41;6.90;80.30
76172;DHT22;64929;51.178;4.138;2022-12-07T08:31:10;6.90;81.00
76172;DHT22;64929;51.178;4.138;2022-12-07T08:33:36;6.90;81.20
76172;DHT22;64929;51.178;4.138;2022-12-07T08:36:04;6.80;81.30
76172;DHT22;64929;51.178;4.138;2022-12-07T08:38:30;6.80;81.20
76172;DHT22;64929;51.178;4.138;2022-12-07T08:40:58;6.90;80.70
76172;DHT22;64929;51.178;4.138;2022-12-07T08:43:24;7.00;80.20
76172;DHT22;64929;51.178;4.138;2022-12-07T08:46:16;6.90;81.00
76172;DHT22;64929;51.178;4.138;2022-12-07T08:48:45;6.80;81.80
76172;DHT22;64929;51.178;4.138;2022-12-07T08:51:12;6.90;81.70
76172;DHT22;64929;51.178;4.138;2022-12-07T08:53:40;7.00;80.70
76172;DHT22;64929;51.178;4.138;2022-12-07T08:56:07;7.00;80.60
76172;DHT22;64929;51.178;4.138;2022-12-07T08:58:34;6.90;81.60
76172;DHT22;64929;51.178;4.138;2022-12-07T09:01:01;7.00;81.20
76172;DHT22;64929;51.178;4.138;2022-12-07T09:03:26;7.30;80.10
76172;DHT22;64929;51.178;4.138;2022-12-07T09:05:53;7.40;80.30
76172;DHT22;64929;51.178;4.138;2022-12-07T09:08:19;7.50;79.20
76172;DHT22;64929;51.178;4.138;2022-12-07T09:10:45;7.30;80.00
76172;DHT22;64929;51.178;4.138;2022-12-07T09:13:11;7.30;79.40
76172;DHT22;64929;51.178;4.138;2022-12-07T09:15:37;7.10;80.30
76172;DHT22;64929;51.178;4.138;2022-12-07T09:18:03;7.10;80.10
76172;DHT22;64929;51.178;4.138;2022-12-07T09:20:28;7.00;80.90
76172;DHT22;64929;51.178;4.138;2022-12-07T09:22:54;6.90;81.90
76172;DHT22;64929;51.178;4.138;2022-12-07T09:25:20;7.10;81.70
76172;DHT22;64929;51.178;4.138;2022-12-07T09:27:45;7.20;81.50
76172;DHT22;64929;51.178;4.138;2022-12-07T09:30:12;7.20;81.30
76172;DHT22;64929;51.178;4.138;2022-12-07T09:32:37;7.20;81.50
76172;DHT22;64929;51.178;4.138;2022-12-07T09:35:03;7.20;81.30
76172;DHT22;64929;51.178;4.138;2022-12-07T09:37:29;7.00;81.70
76172;DHT22;64929;51.178;4.138;2022-12-07T09:39:57;7.00;82.30
76172;DHT22;64929;51.178;4.138;2022-12-07T09:42:29;7.00;82.30
76172;DHT22;64929;51.178;4.138;2022-12-07T09:44:55;6.90;82.50
76172;DHT22;64929;51.178;4.138;2022-12-07T09:47:22;6.80;83.00
76172;DHT22;64929;51.178;4.138;2022-12-07T09:49:47;7.00;82.90
76172;DHT22;64929;51.178;4.138;2022-12-07T09:52:20;7.00;82.50
76172;DHT22;64929;51.178;4.138;2022-12-07T09:54:50;6.90;82.80
76172;DHT22;64929;51.178;4.138;2022-12-07T09:57:16;7.10;82.20
76172;DHT22;64929;51.178;4.138;2022-12-07T09:59:42;7.00;82.40
76172;DHT22;64929;51.178;4.138;2022-12-07T10:04:57;7.10;82.30
76172;DHT22;64929;51.178;4.138;2022-12-07T10:07:23;7.20;82.40
76172;DHT22;64929;51.178;4.138;2022-12-07T10:09:49;7.10;82.50
76172;DHT22;64929;51.178;4.138;2022-12-07T10:12:15;7.40;82.10
76172;DHT22;64929;51.178;4.138;2022-12-07T10:14:54;7.60;80.80
76172;DHT22;64929;51.178;4.138;2022-12-07T10:20:15;7.80;80.90
76172;DHT22;64929;51.178;4.138;2022-12-07T10:22:59;8.20;78.40
76172;DHT22;64929;51.178;4.138;2022-12-07T10:25:35;8.30;77.50
76172;DHT22;64929;51.178;4.138;2022-12-07T10:30:33;8.20;78.20
76172;DHT22;64929;51.178;4.138;2022-12-07T10:32:59;8.20;79.20
76172;DHT22;64929;51.178;4.138;2022-12-07T10:35:29;8.50;79.00
76172;DHT22;64929;51.178;4.138;2022-12-07T10:37:56;9.00;76.00
76172;DHT22;64929;51.178;4.138;2022-12-07T10:40:29;9.30;75.50
76172;DHT22;64929;51.178;4.138;2022-12-07T10:43:05;9.10;76.60
76172;DHT22;64929;51.178;4.138;2022-12-07T10:48:32;8.60;78.60
76172;DHT22;64929;51.178;4.138;2022-12-07T10:51:12;8.50;78.00
76172;DHT22;64929;51.178;4.138;2022-12-07T11:07:44;8.80;78.00
76172;DHT22;64929;51.178;4.138;2022-12-07T11:10:26;9.10;76.70
76172;DHT22;64929;51.178;4.138;2022-12-07T11:15:36;8.80;78.30
76172;DHT22;64929;51.178;4.138;2022-12-07T11:18:14;8.90;77.60
76172;DHT22;64929;51.178;4.138;2022-12-07T11:20:43;8.90;78.10
76172;DHT22;64929;51.178;4.138;2022-12-07T11:34:59;8.70;77.20
76172;DHT22;64929;51.178;4.138;2022-12-07T11:37:33;8.80;78.00
76172;DHT22;64929;51.178;4.138;2022-12-07T11:40:20;8.80;77.20
76172;DHT22;64929;51.178;4.138;2022-12-07T11:42:53;9.20;76.60
76172;DHT22;64929;51.178;4.138;2022-12-07T11:45:33;9.80;74.40
76172;DHT22;64929;51.178;4.138;2022-12-07T11:48:03;10.00;72.80
76172;DHT22;64929;51.178;4.138;2022-12-07T11:50:36;10.60;70.10
76172;DHT22;64929;51.178;4.138;2022-12-07T11:53:14;11.00;69.00
76172;DHT22;64929;51.178;4.138;2022-12-07T11:55:56;11.50;67.50
76172;DHT22;64929;51.178;4.138;2022-12-07T12:06:26;11.20;66.10
76172;DHT22;64929;51.178;4.138;2022-12-07T12:09:06;10.70;69.20
76172;DHT22;64929;51.178;4.138;2022-12-07T12:12:02;10.20;71.20
76172;DHT22;64929;51.178;4.138;2022-12-07T12:22:37;9.50;74.10
76172;DHT22;64929;51.178;4.138;2022-12-07T12:25:06;9.30;74.70
76172;DHT22;64929;51.178;4.138;2022-12-07T12:27:37;9.40;74.00
76172;DHT22;64929;51.178;4.138;2022-12-07T12:30:06;9.60;72.70
76172;DHT22;64929;51.178;4.138;2022-12-07T12:32:40;9.90;72.70
76172;DHT22;64929;51.178;4.138;2022-12-07T12:37:55;10.30;70.70
76172;DHT22;64929;51.178;4.138;2022-12-07T12:42:57;10.20;69.70
76172;DHT22;64929;51.178;4.138;2022-12-07T12:45:27;10.70;67.20
76172;DHT22;64929;51.178;4.138;2022-12-07T12:48:03;11.00;67.10
76172;DHT22;64929;51.178;4.138;2022-12-07T12:50:34;11.40;67.40
76172;DHT22;64929;51.178;4.138;2022-12-07T12:53:03;11.30;65.40
76172;DHT22;64929;51.178;4.138;2022-12-07T13:00:46;9.70;71.00
76172;DHT22;64929;51.178;4.138;2022-12-07T13:03:28;9.10;72.10
76172;DHT22;64929;51.178;4.138;2022-12-07T13:06:18;8.70;73.00
76172;DHT22;64929;51.178;4.138;2022-12-07T13:08:45;8.40;74.30
76172;DHT22;64929;51.178;4.138;2022-12-07T13:11:29;8.40;75.40
76172;DHT22;64929;51.178;4.138;2022-12-07T13:16:59;8.10;77.80
76172;DHT22;64929;51.178;4.138;2022-12-07T13:19:53;8.40;75.20
76172;DHT22;64929;51.178;4.138;2022-12-07T13:24:57;8.40;75.50
76172;DHT22;64929;51.178;4.138;2022-12-07T13:27:25;8.20;77.30
76172;DHT22;64929;51.178;4.138;2022-12-07T13:29:53;8.10;76.30
76172;DHT22;64929;51.178;4.138;2022-12-07T13:32:27;8.20;75.70
76172;DHT22;64929;51.178;4.138;2022-12-07T13:34:53;8.20;75.40
76172;DHT22;64929;51.178;4.138;2022-12-07T13:37:25;8.20;76.20
76172;DHT22;64929;51.178;4.138;2022-12-07T13:39:55;8.10;75.90
76172;DHT22;64929;51.178;4.138;2022-12-07T13:42:29;8.30;74.80
76172;DHT22;64929;51.178;4.138;2022-12-07T13:44:56;8.40;74.10
76172;DHT22;64929;51.178;4.138;2022-12-07T13:47:48;8.10;75.70
76172;DHT22;64929;51.178;4.138;2022-12-07T13:50:26;8.00;78.50
76172;DHT22;64929;51.178;4.138;2022-12-07T13:52:56;8.00;78.00
76172;DHT22;64929;51.178;4.138;2022-12-07T13:55:22;8.00;78.10
76172;DHT22;64929;51.178;4.138;2022-12-07T13:57:51;8.10;76.90
76172;DHT22;64929;51.178;4.138;2022-12-07T14:00:20;8.00;78.20
76172;DHT22;64929;51.178;4.138;2022-12-07T14:05:33;8.10;77.60
76172;DHT22;64929;51.178;4.138;2022-12-07T14:08:22;8.20;77.50
76172;DHT22;64929;51.178;4.138;2022-12-07T14:13:36;8.30;76.30
76172;DHT22;64929;51.178;4.138;2022-12-07T14:16:24;8.10;78.70
76172;DHT22;64929;51.178;4.138;2022-12-07T14:18:51;8.10;79.30
76172;DHT22;64929;51.178;4.138;2022-12-07T14:21:19;8.10;77.90
76172;DHT22;64929;51.178;4.138;2022-12-07T14:23:47;8.20;77.30
76172;DHT22;64929;51.178;4.138;2022-12-07T14:26:27;8.10;77.90
76172;DHT22;64929;51.178;4.138;2022-12-07T14:29:06;8.20;77.60
76172;DHT22;64929;51.178;4.138;2022-12-07T14:31:38;8.10;78.90
76172;DHT22;64929;51.178;4.138;2022-12-07T14:34:04;8.10;78.20
76172;DHT22;64929;51.178;4.138;2022-12-07T14:36:30;8.00;78.10
76172;DHT22;64929;51.178;4.138;2022-12-07T14:38:55;7.70;79.10
76172;DHT22;64929;51.178;4.138;2022-12-07T14:41:23;7.90;79.20
76172;DHT22;64929;51.178;4.138;2022-12-07T14:44:11;8.00;77.30
76172;DHT22;64929;51.178;4.138;2022-12-07T14:46:37;7.90;78.20
76172;DHT22;64929;51.178;4.138;2022-12-07T14:49:02;8.00;77.60
76172;DHT22;64929;51.178;4.138;2022-12-07T14:51:28;7.80;77.70
76172;DHT22;64929;51.178;4.138;2022-12-07T14:53:54;7.80;78.30
76172;DHT22;64929;51.178;4.138;2022-12-07T14:56:20;7.70;78.00
76172;DHT22;64929;51.178;4.138;2022-12-07T14:58:45;7.70;78.70
76172;DHT22;64929;51.178;4.138;2022-12-07T15:01:13;7.70;78.70
76172;DHT22;64929;51.178;4.138;2022-12-07T15:03:39;7.80;78.40
76172;DHT22;64929;51.178;4.138;2022-12-07T15:06:06;7.70;78.50
76172;DHT22;64929;51.178;4.138;2022-12-07T15:08:33;7.80;77.70
76172;DHT22;64929;51.178;4.138;2022-12-07T15:10:58;7.60;77.40
76172;DHT22;64929;51.178;4.138;2022-12-07T15:13:24;7.70;77.90
76172;DHT22;64929;51.178;4.138;2022-12-07T15:16:18;7.70;78.10
76172;DHT22;64929;51.178;4.138;2022-12-07T15:18:45;7.70;77.50
76172;DHT22;64929;51.178;4.138;2022-12-07T15:21:15;7.80;76.60
76172;DHT22;64929;51.178;4.138;2022-12-07T15:23:41;7.70;78.00
76172;DHT22;64929;51.178;4.138;2022-12-07T15:26:10;7.70;78.40
76172;DHT22;64929;51.178;4.138;2022-12-07T15:28:35;7.70;78.80
76172;DHT22;64929;51.178;4.138;2022-12-07T15:31:01;7.80;78.40
76172;DHT22;64929;51.178;4.138;2022-12-07T15:33:27;7.90;78.70
76172;DHT22;64929;51.178;4.138;2022-12-07T15:35:52;8.00;78.00
76172;DHT22;64929;51.178;4.138;2022-12-07T15:38:18;7.90;78.20
76172;DHT22;64929;51.178;4.138;2022-12-07T15:40:46;7.90;78.10
76172;DHT22;64929;51.178;4.138;2022-12-07T15:43:12;7.90;79.30
76172;DHT22;64929;51.178;4.138;2022-12-07T15:45:58;7.80;79.50
76172;DHT22;64929;51.178;4.138;2022-12-07T15:48:24;7.80;78.30
76172;DHT22;64929;51.178;4.138;2022-12-07T15:50:50;7.90;77.70
76172;DHT22;64929;51.178;4.138;2022-12-07T15:53:16;8.20;76.00
76172;DHT22;64929;51.178;4.138;2022-12-07T15:55:42;8.30;75.80
76172;DHT22;64929;51.178;4.138;2022-12-07T15:58:08;8.30;75.40
76172;DHT22;64929;51.178;4.138;2022-12-07T16:00:34;8.10;76.40
76172;DHT22;64929;51.178;4.138;2022-12-07T16:03:00;7.80;77.40
76172;DHT22;64929;51.178;4.138;2022-12-07T16:05:26;7.80;77.60
76172;DHT22;64929;51.178;4.138;2022-12-07T16:07:58;7.60;78.50
76172;DHT22;64929;51.178;4.138;2022-12-07T16:10:25;7.40;79.30
76172;DHT22;64929;51.178;4.138;2022-12-07T16:12:50;7.40;79.50
76172;DHT22;64929;51.178;4.138;2022-12-07T16:15:16;7.20;79.70
76172;DHT22;64929;51.178;4.138;2022-12-07T16:17:41;7.40;79.70
76172;DHT22;64929;51.178;4.138;2022-12-07T16:20:08;7.40;79.40
76172;DHT22;64929;51.178;4.138;2022-12-07T16:22:33;7.40;79.50
76172;DHT22;64929;51.178;4.138;2022-12-07T16:24:59;7.20;80.70
76172;DHT22;64929;51.178;4.138;2022-12-07T16:27:25;7.20;80.90
76172;DHT22;64929;51.178;4.138;2022-12-07T16:29:50;7.20;80.70
76172;DHT22;64929;51.178;4.138;2022-12-07T16:32:16;7.20;80.70
76172;DHT22;64929;51.178;4.138;2022-12-07T16:34:42;7.20;80.30
76172;DHT22;64929;51.178;4.138;2022-12-07T16:37:07;7.20;79.60
76172;DHT22;64929;51.178;4.138;2022-12-07T16:39:33;7.40;78.50
76172;DHT22;64929;51.178;4.138;2022-12-07T16:41:59;7.60;77.60
76172;DHT22;64929;51.178;4.138;2022-12-07T16:44:25;7.50;77.80
76172;DHT22;64929;51.178;4.138;2022-12-07T16:46:51;7.40;78.00
76172;DHT22;64929;51.178;4.138;2022-12-07T16:49:17;7.30;78.00
76172;DHT22;64929;51.178;4.138;2022-12-07T16:51:43;7.40;77.80
76172;DHT22;64929;51.178;4.138;2022-12-07T16:54:11;7.30;77.70
76172;DHT22;64929;51.178;4.138;2022-12-07T16:56:37;7.40;77.90
76172;DHT22;64929;51.178;4.138;2022-12-07T16:59:03;7.50;76.60
76172;DHT22;64929;51.178;4.138;2022-12-07T17:01:29;7.40;77.60
76172;DHT22;64929;51.178;4.138;2022-12-07T17:03:57;7.40;77.90
76172;DHT22;64929;51.178;4.138;2022-12-07T17:06:25;7.40;78.30
76172;DHT22;64929;51.178;4.138;2022-12-07T17:08:51;7.30;78.50
76172;DHT22;64929;51.178;4.138;2022-12-07T17:11:23;7.30;78.50
76172;DHT22;64929;51.178;4.138;2022-12-07T17:13:49;7.30;78.80
76172;DHT22;64929;51.178;4.138;2022-12-07T17:16:34;7.30;78.40
76172;DHT22;64929;51.178;4.138;2022-12-07T17:19:04;7.40;77.70
76172;DHT22;64929;51.178;4.138;2022-12-07T17:21:30;7.40;77.50
76172;DHT22;64929;51.178;4.138;2022-12-07T17:23:59;7.30;77.80
76172;DHT22;64929;51.178;4.138;2022-12-07T17:26:25;7.20;78.60
76172;DHT22;64929;51.178;4.138;2022-12-07T17:28:51;7.20;78.80
76172;DHT22;64929;51.178;4.138;2022-12-07T17:31:19;7.20;79.00
76172;DHT22;64929;51.178;4.138;2022-12-07T17:33:45;7.00;79.60
76172;DHT22;64929;51.178;4.138;2022-12-07T17:36:13;6.90;80.20
76172;DHT22;64929;51.178;4.138;2022-12-07T17:38:39;7.20;78.70
76172;DHT22;64929;51.178;4.138;2022-12-07T17:41:13;7.20;78.20
76172;DHT22;64929;51.178;4.138;2022-12-07T17:44:00;7.30;77.50
76172;DHT22;64929;51.178;4.138;2022-12-07T17:46:26;7.20;77.70
76172;DHT22;64929;51.178;4.138;2022-12-07T17:48:55;7.30;77.30